createdAt,value
2023-03-05T00:01:15.852Z,33.08
2023-03-05T00:03:47.693Z,35.05
2023-03-05T00:06:20.848Z,31.10
2023-03-05T00:08:53.543Z,33.90
2023-03-05T00:11:28.161Z,35.80
2023-03-05T00:14:01.594Z,30.98
2023-03-05T00:16:33.958Z,29.63
2023-03-05T00:19:06.330Z,29.15
2023-03-05T00:21:40.870Z,30.63
2023-03-05T00:24:16.738Z,33.08
2023-03-05T00:26:48.689Z,31.35
2023-03-05T00:29:21.963Z,30.52
2023-03-05T00:31:54.340Z,28.08
2023-03-05T00:34:28.049Z,27.98
2023-03-05T00:36:59.935Z,34.83
2023-03-05T00:39:31.920Z,28.25
2023-03-05T00:42:03.939Z,34.38
2023-03-05T00:44:35.860Z,30.77
2023-03-05T00:47:07.758Z,31.13
2023-03-05T00:49:39.622Z,31.58
2023-03-05T00:52:11.438Z,27.65
2023-03-05T00:54:43.261Z,28.13
2023-03-05T00:57:15.165Z,30.38
2023-03-05T00:59:47.108Z,30.90
2023-03-05T01:02:19.116Z,33.63
2023-03-05T01:04:50.951Z,29.13
2023-03-05T01:07:23.059Z,32.45
2023-03-05T01:09:55.016Z,35.13
2023-03-05T01:12:26.834Z,31.98
2023-03-05T01:14:58.764Z,30.52
2023-03-05T01:17:30.634Z,29.80
2023-03-05T01:20:02.636Z,28.98
2023-03-05T01:22:34.552Z,32.30
2023-03-05T01:25:07.130Z,32.38
2023-03-05T01:27:39.088Z,27.80
2023-03-05T01:30:11.898Z,30.17
2023-03-05T01:32:43.855Z,28.90
2023-03-05T01:35:19.891Z,28.13
2023-03-05T01:37:52.421Z,34.28
2023-03-05T01:40:28.279Z,32.85
2023-03-05T01:43:16.161Z,35.13
2023-03-05T01:46:12.921Z,31.25
2023-03-05T01:48:48.810Z,31.98
2023-03-05T01:51:25.568Z,33.08
2023-03-05T01:54:00.795Z,36.42
2023-03-05T01:56:32.897Z,32.28
2023-03-05T01:59:05.012Z,32.80
2023-03-05T02:01:41.356Z,40.75
2023-03-05T02:04:16.684Z,28.60
2023-03-05T02:06:49.907Z,31.63
2023-03-05T02:09:23.999Z,28.95
2023-03-05T02:11:57.403Z,28.35
2023-03-05T02:14:29.478Z,30.70
2023-03-05T02:17:01.505Z,30.05
2023-03-05T02:19:52.156Z,30.65
2023-03-05T02:22:24.685Z,29.13
2023-03-05T02:24:57.223Z,30.80
2023-03-05T02:27:36.138Z,31.85
2023-03-05T02:30:08.818Z,31.52
2023-03-05T02:32:41.813Z,28.25
2023-03-05T02:35:13.981Z,31.48
2023-03-05T02:37:46.030Z,29.85
2023-03-05T02:40:18.106Z,28.92
2023-03-05T02:42:50.878Z,31.35
2023-03-05T02:45:23.080Z,30.05
2023-03-05T02:47:55.467Z,29.23
2023-03-05T02:50:28.561Z,27.30
2023-03-05T02:53:00.643Z,31.02
2023-03-05T02:55:33.630Z,31.02
2023-03-05T02:58:05.890Z,30.13
2023-03-05T03:00:37.761Z,28.63
2023-03-05T03:03:10.265Z,32.00
2023-03-05T03:05:42.146Z,33.53
2023-03-05T03:08:15.144Z,27.88
2023-03-05T03:10:47.088Z,27.60
2023-03-05T03:13:19.052Z,30.95
2023-03-05T03:15:50.955Z,29.88
2023-03-05T03:18:22.850Z,33.33
2023-03-05T03:20:54.857Z,28.65
2023-03-05T03:23:27.237Z,27.98
2023-03-05T03:25:59.093Z,29.80
2023-03-05T03:28:30.989Z,29.88
2023-03-05T03:31:02.948Z,27.70
2023-03-05T03:33:34.886Z,26.75
2023-03-05T03:36:07.258Z,26.17
2023-03-05T03:38:39.266Z,23.42
2023-03-05T03:41:11.165Z,26.83
2023-03-05T03:43:43.540Z,24.40
2023-03-05T03:46:15.506Z,24.83
2023-03-05T03:48:50.694Z,25.67
2023-03-05T03:51:22.532Z,28.92
2023-03-05T03:53:54.851Z,25.63
2023-03-05T03:56:26.864Z,24.15
2023-03-05T03:58:58.755Z,26.95
2023-03-05T04:01:30.764Z,26.35
2023-03-05T04:04:03.542Z,21.48
2023-03-05T04:06:35.452Z,23.20
2023-03-05T04:09:08.487Z,23.98
2023-03-05T04:11:40.315Z,23.75
2023-03-05T04:14:12.299Z,23.55
2023-03-05T04:16:44.154Z,23.30
2023-03-05T04:19:16.147Z,28.13
2023-03-05T04:21:47.963Z,24.08
2023-03-05T04:24:20.166Z,26.13
2023-03-05T04:26:52.020Z,22.95
2023-03-05T04:29:23.877Z,24.60
2023-03-05T04:31:56.181Z,22.92
2023-03-05T04:34:28.682Z,21.88
2023-03-05T04:37:01.131Z,25.40
2023-03-05T04:39:33.026Z,24.55
2023-03-05T04:42:05.046Z,25.35
2023-03-05T04:44:37.021Z,23.80
2023-03-05T04:47:08.914Z,26.67
2023-03-05T04:49:40.887Z,22.50
2023-03-05T04:52:14.192Z,24.05
2023-03-05T04:54:46.224Z,24.52
2023-03-05T04:57:18.121Z,23.35
2023-03-05T04:59:49.970Z,23.33
2023-03-05T05:02:21.909Z,24.38
2023-03-05T05:04:54.557Z,33.70
2023-03-05T05:07:26.489Z,22.58
2023-03-05T05:09:58.417Z,23.48
2023-03-05T05:12:31.318Z,20.08
2023-03-05T05:15:04.488Z,20.23
2023-03-05T05:17:36.493Z,21.80
2023-03-05T05:20:11.532Z,26.20
2023-03-05T05:22:43.750Z,25.05
2023-03-05T05:25:15.732Z,23.92
2023-03-05T05:27:47.722Z,21.83
2023-03-05T05:30:19.738Z,22.65
2023-03-05T05:32:51.615Z,22.13
2023-03-05T05:35:24.086Z,25.88
2023-03-05T05:37:55.964Z,24.70
2023-03-05T05:40:27.843Z,27.33
2023-03-05T05:43:01.047Z,23.20
2023-03-05T05:45:33.627Z,22.98
2023-03-05T05:48:05.757Z,23.10
2023-03-05T05:50:38.968Z,21.75
2023-03-05T05:53:10.766Z,23.00
2023-03-05T05:55:42.606Z,20.90
2023-03-05T05:58:14.458Z,23.08
2023-03-05T06:00:47.154Z,22.35
2023-03-05T06:03:19.146Z,21.85
2023-03-05T06:05:52.083Z,22.38
2023-03-05T06:08:23.909Z,23.42
2023-03-05T06:10:56.401Z,22.00
2023-03-05T06:13:28.360Z,24.85
2023-03-05T06:16:03.586Z,23.10
2023-03-05T06:18:35.862Z,22.92
2023-03-05T06:21:13.500Z,23.52
2023-03-05T06:23:46.682Z,20.90
2023-03-05T06:26:21.740Z,23.88
2023-03-05T06:28:55.027Z,20.65
2023-03-05T06:31:29.001Z,18.90
2023-03-05T06:34:01.542Z,24.58
2023-03-05T06:36:33.536Z,21.45
2023-03-05T06:39:05.602Z,22.55
2023-03-05T06:41:37.484Z,22.48
2023-03-05T06:44:10.280Z,23.45
2023-03-05T06:46:42.173Z,21.92
2023-03-05T06:49:15.248Z,21.92
2023-03-05T06:51:47.409Z,23.77
2023-03-05T06:54:19.325Z,20.92
2023-03-05T06:56:51.238Z,22.58
2023-03-05T06:59:23.101Z,23.15
2023-03-05T07:01:54.924Z,25.80
2023-03-05T07:04:26.854Z,46.47
2023-03-05T07:06:59.225Z,29.65
2023-03-05T07:09:31.202Z,24.23
2023-03-05T07:12:03.088Z,20.20
2023-03-05T07:14:35.439Z,21.73
2023-03-05T07:17:07.812Z,21.85
2023-03-05T07:19:39.708Z,22.08
2023-03-05T07:22:11.774Z,19.88
2023-03-05T07:24:43.709Z,22.73
2023-03-05T07:27:16.533Z,24.25
2023-03-05T07:29:48.328Z,22.40
2023-03-05T07:32:20.215Z,25.48
2023-03-05T07:34:53.291Z,23.65
2023-03-05T07:37:25.558Z,22.65
2023-03-05T07:39:57.584Z,21.45
2023-03-05T07:42:29.528Z,24.08
2023-03-05T07:45:14.230Z,22.38
2023-03-05T07:47:46.139Z,23.73
2023-03-05T07:50:18.089Z,26.08
2023-03-05T07:52:50.012Z,25.95
2023-03-05T07:55:22.036Z,25.50
2023-03-05T07:57:53.935Z,24.30
2023-03-05T08:00:25.936Z,23.45
2023-03-05T08:02:57.908Z,24.42
2023-03-05T08:05:29.859Z,20.50
2023-03-05T08:08:01.789Z,21.83
2023-03-05T08:10:34.694Z,23.70
2023-03-05T08:13:06.674Z,22.42
2023-03-05T08:15:38.679Z,28.00
2023-03-05T08:18:10.771Z,35.95
2023-03-05T08:20:42.662Z,29.83
2023-03-05T08:23:14.631Z,29.00
2023-03-05T08:25:46.707Z,32.80
2023-03-05T08:28:19.704Z,32.65
2023-03-05T08:30:51.730Z,33.45
2023-03-05T08:33:23.729Z,32.15
2023-03-05T08:35:55.716Z,34.67
2023-03-05T08:38:27.866Z,35.30
2023-03-05T08:40:59.802Z,28.33
2023-03-05T08:43:31.979Z,29.65
2023-03-05T08:46:04.359Z,29.83
2023-03-05T08:48:36.202Z,28.77
2023-03-05T08:51:10.866Z,26.42
2023-03-05T08:53:44.349Z,30.30
2023-03-05T08:56:16.503Z,30.73
2023-03-05T08:58:48.495Z,30.20
2023-03-05T09:01:20.873Z,30.25
2023-03-05T09:03:52.973Z,31.52
2023-03-05T09:06:25.821Z,33.25
2023-03-05T09:08:57.829Z,33.13
2023-03-05T09:11:29.769Z,35.05
2023-03-05T09:14:04.743Z,34.45
2023-03-05T09:16:38.405Z,34.72
2023-03-05T09:19:12.669Z,37.25
2023-03-05T09:21:44.575Z,36.15
2023-03-05T09:24:16.554Z,33.28
2023-03-05T09:26:48.497Z,36.65
2023-03-05T09:29:20.462Z,39.78
2023-03-05T09:31:52.586Z,36.00
2023-03-05T09:34:24.647Z,34.55
2023-03-05T09:36:56.594Z,36.08
2023-03-05T09:39:28.462Z,33.65
2023-03-05T09:42:38.735Z,33.50
2023-03-05T09:45:19.923Z,34.40
2023-03-05T09:48:30.563Z,37.65
2023-03-05T09:51:04.801Z,37.17
2023-03-05T09:53:47.781Z,36.25
2023-03-05T09:56:32.152Z,34.38
2023-03-05T09:59:18.685Z,35.25
2023-03-05T10:01:52.928Z,34.83
2023-03-05T10:04:38.708Z,36.67
2023-03-05T10:07:26.148Z,40.30
2023-03-05T10:10:01.201Z,35.08
2023-03-05T10:12:42.244Z,34.22
2023-03-05T10:15:15.535Z,33.13
2023-03-05T10:18:05.651Z,35.13
2023-03-05T10:20:53.863Z,40.42
2023-03-05T10:23:48.893Z,35.33
2023-03-05T10:26:24.099Z,33.08
2023-03-05T10:29:13.722Z,35.45
2023-03-05T10:31:54.469Z,34.13
2023-03-05T10:34:53.339Z,38.78
2023-03-05T10:37:47.145Z,35.55
2023-03-05T10:40:35.159Z,37.13
2023-03-05T10:43:21.222Z,39.03
2023-03-05T10:45:55.187Z,39.55
2023-03-05T10:49:24.731Z,36.25
2023-03-05T10:52:18.662Z,40.13
2023-03-05T10:54:50.970Z,38.05
2023-03-05T10:57:27.087Z,39.80
2023-03-05T11:00:19.395Z,38.67
2023-03-05T11:03:04.038Z,38.17
2023-03-05T11:05:39.054Z,39.00
2023-03-05T11:08:25.747Z,42.53
2023-03-05T11:11:16.167Z,38.00
2023-03-05T11:13:54.006Z,41.05
2023-03-05T11:16:29.102Z,35.35
2023-03-05T11:19:33.241Z,35.42
2023-03-05T11:22:19.048Z,36.63
2023-03-05T11:25:06.090Z,39.28
2023-03-05T11:27:47.725Z,40.15
2023-03-05T11:30:21.883Z,38.75
2023-03-05T11:33:15.425Z,43.17
2023-03-05T11:35:49.442Z,36.25
2023-03-05T11:38:24.680Z,37.30
2023-03-05T11:40:57.227Z,37.97
2023-03-05T11:43:31.024Z,41.88
2023-03-05T11:46:03.728Z,37.83
2023-03-05T11:48:38.506Z,39.53
2023-03-05T11:51:38.426Z,38.17
2023-03-05T11:54:18.011Z,34.63
2023-03-05T11:56:52.662Z,37.72
2023-03-05T11:59:39.588Z,38.70
2023-03-05T12:02:22.131Z,38.05
2023-03-05T12:04:54.183Z,36.08
2023-03-05T12:07:39.392Z,38.53
2023-03-05T12:10:20.335Z,33.50
2023-03-05T12:12:58.849Z,35.60
2023-03-05T12:15:58.143Z,39.45
2023-03-05T12:18:38.947Z,36.90
2023-03-05T12:21:55.158Z,36.10
2023-03-05T12:24:28.474Z,34.25
2023-03-05T12:27:09.286Z,35.10
2023-03-05T12:29:49.933Z,36.90
2023-03-05T12:32:25.543Z,35.42
2023-03-05T12:35:24.070Z,40.10
2023-03-05T12:37:57.305Z,39.85
2023-03-05T12:40:34.559Z,42.08
2023-03-05T12:43:33.748Z,40.15
2023-03-05T12:46:25.759Z,36.40
2023-03-05T12:48:57.676Z,37.25
2023-03-05T12:51:40.712Z,41.25
2023-03-05T12:54:32.890Z,45.45
2023-03-05T12:57:17.340Z,39.33
2023-03-05T13:00:21.660Z,38.92
2023-03-05T13:02:58.787Z,84.57
2023-03-05T13:05:33.926Z,37.97
2023-03-05T13:08:22.530Z,38.83
2023-03-05T13:11:00.275Z,36.47
2023-03-05T13:13:43.103Z,39.47
2023-03-05T13:16:20.691Z,34.97
2023-03-05T13:18:55.029Z,38.80
2023-03-05T13:21:33.141Z,37.83
2023-03-05T13:24:15.001Z,39.15
2023-03-05T13:26:46.935Z,37.47
2023-03-05T13:29:26.217Z,41.88
2023-03-05T13:32:04.374Z,41.30
2023-03-05T13:34:47.409Z,37.00
2023-03-05T13:37:22.427Z,37.33
2023-03-05T13:40:00.854Z,38.75
2023-03-05T13:42:34.865Z,38.45
2023-03-05T13:45:30.953Z,39.13
2023-03-05T13:48:06.923Z,39.20
2023-03-05T13:50:40.688Z,41.75
2023-03-05T13:53:31.022Z,39.22
2023-03-05T13:56:06.331Z,39.88
2023-03-05T13:58:48.754Z,36.08
2023-03-05T14:01:40.432Z,41.25
2023-03-05T14:04:15.525Z,39.97
2023-03-05T14:06:56.456Z,38.83
2023-03-05T14:09:39.401Z,36.60
2023-03-05T14:12:32.043Z,37.80
2023-03-05T14:15:27.879Z,35.47
2023-03-05T14:18:18.116Z,39.75
2023-03-05T14:21:03.660Z,39.63
2023-03-05T14:23:38.224Z,37.03
2023-03-05T14:26:30.282Z,37.75
2023-03-05T14:29:17.594Z,35.40
2023-03-05T14:31:52.299Z,35.65
2023-03-05T14:34:37.989Z,38.53
2023-03-05T14:37:23.373Z,40.08
2023-03-05T14:40:05.870Z,38.55
2023-03-05T14:42:51.174Z,38.22
2023-03-05T14:45:34.324Z,37.08
2023-03-05T14:48:08.170Z,37.40
2023-03-05T14:50:44.696Z,39.85
2023-03-05T14:53:20.448Z,37.72
2023-03-05T14:55:57.369Z,40.17
2023-03-05T14:58:32.432Z,38.60
2023-03-05T15:01:04.408Z,37.22
2023-03-05T15:03:38.030Z,36.17
2023-03-05T15:06:26.333Z,36.22
2023-03-05T15:08:59.156Z,36.55
2023-03-05T15:11:31.277Z,41.47
2023-03-05T15:14:03.210Z,38.15
2023-03-05T15:16:35.908Z,36.72
2023-03-05T15:19:10.791Z,39.15
2023-03-05T15:21:42.636Z,39.47
2023-03-05T15:24:14.857Z,37.50
2023-03-05T15:26:48.646Z,36.97
2023-03-05T15:29:21.713Z,39.45
2023-03-05T15:31:53.951Z,38.90
2023-03-05T15:34:25.879Z,41.15
2023-03-05T15:36:57.745Z,40.28
2023-03-05T15:39:30.216Z,38.08
2023-03-05T15:42:02.937Z,36.28
2023-03-05T15:44:35.890Z,41.78
2023-03-05T15:47:07.810Z,37.88
2023-03-05T15:49:39.686Z,42.40
2023-03-05T15:52:11.737Z,39.85
2023-03-05T15:54:43.558Z,39.17
2023-03-05T15:57:15.412Z,40.67
2023-03-05T15:59:47.435Z,40.05
2023-03-05T16:02:19.345Z,41.20
2023-03-05T16:04:51.193Z,40.85
2023-03-05T16:07:23.878Z,43.20
2023-03-05T16:09:57.693Z,42.05
2023-03-05T16:12:40.592Z,47.45
2023-03-05T16:15:16.151Z,59.42
2023-03-05T16:17:52.262Z,45.85
2023-03-05T16:20:24.243Z,44.25
2023-03-05T16:22:56.273Z,47.85
2023-03-05T16:25:28.419Z,43.85
2023-03-05T16:28:00.564Z,43.90
2023-03-05T16:30:33.228Z,43.85
2023-03-05T16:33:05.174Z,43.00
2023-03-05T16:35:37.111Z,44.25
2023-03-05T16:38:09.134Z,41.55
2023-03-05T16:41:09.154Z,45.17
2023-03-05T16:43:36.574Z,48.88
2023-03-05T16:46:08.602Z,48.85
2023-03-05T16:48:42.716Z,48.95
2023-03-05T16:51:14.771Z,61.28
2023-03-05T16:53:46.732Z,48.30
2023-03-05T16:56:19.556Z,43.50
2023-03-05T16:58:53.399Z,45.38
2023-03-05T17:01:26.151Z,48.58
2023-03-05T17:03:59.515Z,48.60
2023-03-05T17:06:33.532Z,47.83
2023-03-05T17:09:05.609Z,44.33
2023-03-05T17:11:37.481Z,46.60
2023-03-05T17:14:09.409Z,48.40
2023-03-05T17:16:41.439Z,44.58
2023-03-05T17:19:13.340Z,43.85
2023-03-05T17:21:45.679Z,51.72
2023-03-05T17:24:18.072Z,46.63
2023-03-05T17:26:50.279Z,46.03
2023-03-05T17:29:23.228Z,53.05
2023-03-05T17:31:55.105Z,52.30
2023-03-05T17:34:36.035Z,49.45
2023-03-05T17:37:09.468Z,45.70
2023-03-05T17:39:41.500Z,53.67
2023-03-05T17:42:15.662Z,55.33
2023-03-05T17:47:22.505Z,53.78
2023-03-05T17:49:54.539Z,51.47
2023-03-05T17:52:26.338Z,53.22
2023-03-05T17:54:59.083Z,52.85
2023-03-05T17:57:31.327Z,153.43
2023-03-05T18:00:05.282Z,82.90
2023-03-05T18:02:44.217Z,42.13
2023-03-05T18:05:17.707Z,52.95
2023-03-05T18:07:50.587Z,53.92
2023-03-05T18:10:25.140Z,57.80
2023-03-05T18:12:58.568Z,54.78
2023-03-05T18:15:31.837Z,53.13
2023-03-05T18:18:05.213Z,54.05
2023-03-05T18:20:37.537Z,60.63
2023-03-05T18:23:11.618Z,53.50
2023-03-05T18:25:44.433Z,54.22
2023-03-05T18:28:17.923Z,55.40
2023-03-05T18:30:50.111Z,62.78
2023-03-05T18:33:24.722Z,64.25
2023-03-05T18:35:57.743Z,51.95
2023-03-05T18:38:31.437Z,57.13
2023-03-05T18:41:03.965Z,55.08
2023-03-05T18:43:35.970Z,63.75
2023-03-05T18:46:08.600Z,60.50
2023-03-05T18:48:40.442Z,55.63
2023-03-05T18:51:17.544Z,55.78
2023-03-05T18:53:51.172Z,57.75
2023-03-05T18:56:23.903Z,59.42
2023-03-05T18:58:57.459Z,57.42
2023-03-05T19:01:30.469Z,61.22
2023-03-05T19:04:03.061Z,60.38
2023-03-05T19:06:36.138Z,58.33
2023-03-05T19:09:31.051Z,54.03
2023-03-05T19:12:13.187Z,60.20
2023-03-05T19:14:45.106Z,99.88
2023-03-05T19:17:17.027Z,61.90
2023-03-05T19:19:53.369Z,61.75
2023-03-05T19:22:26.984Z,58.72
2023-03-05T19:24:59.610Z,60.08
2023-03-05T19:27:31.425Z,54.20
2023-03-05T19:30:04.632Z,63.25
2023-03-05T19:32:36.864Z,57.78
2023-03-05T19:35:09.355Z,58.28
2023-03-05T19:37:41.240Z,57.45
2023-03-05T19:40:14.631Z,56.28
2023-03-05T19:42:46.567Z,57.15
2023-03-05T19:45:18.521Z,55.42
2023-03-05T19:47:50.420Z,59.53
2023-03-05T19:50:22.318Z,52.25
2023-03-05T19:52:54.202Z,60.83
2023-03-05T19:55:26.257Z,55.78
2023-03-05T19:57:58.148Z,56.60
2023-03-05T20:00:30.021Z,53.67
2023-03-05T20:03:02.062Z,54.15
2023-03-05T20:05:34.055Z,59.08
2023-03-05T20:08:05.939Z,54.95
2023-03-05T20:10:38.057Z,54.05
2023-03-05T20:13:09.962Z,55.42
2023-03-05T20:15:41.895Z,57.63
2023-03-05T20:18:13.770Z,56.75
2023-03-05T20:20:51.005Z,56.55
2023-03-05T20:23:24.512Z,60.65
2023-03-05T20:25:56.947Z,56.67
2023-03-05T20:28:28.893Z,63.28
2023-03-05T20:31:01.541Z,59.50
2023-03-05T20:33:33.459Z,62.42
2023-03-05T20:36:06.096Z,64.85
2023-03-05T20:38:39.096Z,63.17
2023-03-05T20:41:14.173Z,63.58
2023-03-05T20:43:50.921Z,60.20
2023-03-05T20:46:47.905Z,61.42
2023-03-05T20:49:20.271Z,59.17
2023-03-05T20:51:54.802Z,57.72
2023-03-05T20:54:28.089Z,62.38
2023-03-05T20:57:00.055Z,61.28
2023-03-05T20:59:31.965Z,59.20
2023-03-05T21:02:04.675Z,55.80
2023-03-05T21:04:36.597Z,59.58
2023-03-05T21:07:09.687Z,62.33
2023-03-05T21:09:41.669Z,55.97
2023-03-05T21:12:13.665Z,63.53
2023-03-05T21:14:45.666Z,57.85
2023-03-05T21:17:17.958Z,60.92
2023-03-05T21:19:49.818Z,58.83
2023-03-05T21:22:21.907Z,62.30
2023-03-05T21:25:23.004Z,53.85
2023-03-05T21:27:58.217Z,96.40
2023-03-05T21:30:36.684Z,86.95
2023-03-05T21:33:11.101Z,55.85
2023-03-05T21:35:43.753Z,59.33
2023-03-05T21:38:15.970Z,60.20
2023-03-05T21:40:50.014Z,60.22
2023-03-05T21:43:23.497Z,56.15
2023-03-05T21:45:57.212Z,60.83
2023-03-05T21:48:29.690Z,56.57
2023-03-05T21:51:38.435Z,61.67
2023-03-05T21:54:29.033Z,57.53
2023-03-05T21:57:00.943Z,58.13
2023-03-05T21:59:33.159Z,61.30
2023-03-05T22:02:05.024Z,56.20
2023-03-05T22:04:36.812Z,56.53
2023-03-05T22:07:08.914Z,57.83
2023-03-05T22:09:40.843Z,60.33
2023-03-05T22:12:57.056Z,60.85
2023-03-05T22:15:45.407Z,59.28
2023-03-05T22:18:30.140Z,63.70
2023-03-05T22:21:02.400Z,56.15
2023-03-05T22:23:34.750Z,58.95
2023-03-05T22:26:07.703Z,61.88
2023-03-05T22:28:39.680Z,56.42
2023-03-05T22:31:11.941Z,55.05
2023-03-05T22:33:43.922Z,54.70
2023-03-05T22:36:19.214Z,59.50
2023-03-05T22:38:51.623Z,57.92
2023-03-05T22:41:23.594Z,53.72
2023-03-05T22:43:55.441Z,63.80
2023-03-05T22:46:27.778Z,56.15
2023-03-05T22:48:59.789Z,59.33
2023-03-05T22:51:31.724Z,61.00
2023-03-05T22:54:03.640Z,59.50
2023-03-05T22:56:36.698Z,59.50
2023-03-05T22:59:08.665Z,65.00
2023-03-05T23:01:40.643Z,62.50
2023-03-05T23:04:49.935Z,63.63
2023-03-05T23:07:24.728Z,65.15
2023-03-05T23:10:00.847Z,58.22
2023-03-05T23:12:35.207Z,58.40
2023-03-05T23:15:13.467Z,59.20
2023-03-05T23:17:45.616Z,57.83
2023-03-05T23:20:20.891Z,57.30
2023-03-05T23:22:56.074Z,57.60
2023-03-05T23:25:30.829Z,55.38
2023-03-05T23:28:03.792Z,63.15
2023-03-05T23:30:38.826Z,63.75
2023-03-05T23:33:21.836Z,60.05
2023-03-05T23:35:59.532Z,55.13
2023-03-05T23:38:31.493Z,56.70
2023-03-05T23:41:07.467Z,55.63
2023-03-05T23:43:39.355Z,58.72
2023-03-05T23:46:12.124Z,58.22
2023-03-05T23:48:44.020Z,56.47
2023-03-05T23:51:16.062Z,57.45
2023-03-05T23:53:48.814Z,53.55
2023-03-05T23:56:20.834Z,57.15
2023-03-05T23:58:56.067Z,53.22
